createdAt,value
2022-09-07T00:00:44.105Z,4.13
2022-09-07T00:03:10.994Z,3.80
2022-09-07T00:05:45.442Z,4.88
2022-09-07T00:08:12.868Z,5.82
2022-09-07T00:10:39.751Z,6.00
2022-09-07T00:13:10.491Z,4.53
2022-09-07T00:15:40.435Z,4.65
2022-09-07T00:18:07.308Z,6.18
2022-09-07T00:20:34.105Z,5.93
2022-09-07T00:23:00.794Z,4.55
2022-09-07T00:25:29.817Z,4.30
2022-09-07T00:27:58.359Z,5.28
2022-09-07T00:30:24.991Z,5.68
2022-09-07T00:32:51.637Z,5.22
2022-09-07T00:35:18.284Z,6.95
2022-09-07T00:37:44.891Z,6.63
2022-09-07T00:40:11.585Z,4.95
2022-09-07T00:42:38.350Z,4.82
2022-09-07T00:45:19.241Z,5.28
2022-09-07T00:48:04.643Z,4.55
2022-09-07T00:50:52.724Z,5.45
2022-09-07T00:53:25.255Z,4.97
2022-09-07T00:55:53.808Z,6.45
2022-09-07T00:58:22.616Z,6.22
2022-09-07T01:00:50.800Z,5.75
2022-09-07T01:03:23.635Z,6.75
2022-09-07T01:06:06.872Z,6.97
2022-09-07T01:08:35.905Z,6.75
2022-09-07T01:11:03.145Z,7.57
2022-09-07T01:13:30.250Z,5.35
2022-09-07T01:16:12.908Z,6.72
2022-09-07T01:18:48.210Z,5.90
2022-09-07T01:21:50.240Z,5.47
2022-09-07T01:24:42.887Z,6.07
2022-09-07T01:27:29.790Z,6.13
2022-09-07T01:30:04.839Z,6.85
2022-09-07T01:32:51.723Z,8.93
2022-09-07T01:35:33.831Z,8.43
2022-09-07T01:38:05.266Z,5.97
2022-09-07T01:40:46.506Z,6.53
2022-09-07T01:43:40.207Z,6.53
2022-09-07T01:46:35.342Z,7.93
2022-09-07T01:49:20.652Z,6.25
2022-09-07T01:51:54.348Z,6.38
2022-09-07T01:54:28.773Z,7.32
2022-09-07T01:57:01.823Z,10.38
2022-09-07T01:59:28.406Z,7.75
2022-09-07T02:02:04.251Z,7.93
2022-09-07T02:04:53.328Z,7.25
2022-09-07T02:07:46.104Z,8.10
2022-09-07T02:10:27.405Z,5.60
2022-09-07T02:15:47.806Z,7.10
2022-09-07T02:18:14.824Z,4.57
2022-09-07T02:20:46.238Z,6.72
2022-09-07T02:23:19.181Z,7.85
2022-09-07T02:25:55.238Z,7.13
2022-09-07T02:28:30.543Z,10.50
2022-09-07T02:30:57.513Z,7.60
2022-09-07T02:33:24.347Z,9.48
2022-09-07T02:35:51.950Z,6.30
2022-09-07T02:38:19.271Z,6.43
2022-09-07T02:40:53.806Z,6.70
2022-09-07T02:43:22.209Z,8.80
2022-09-07T02:46:01.065Z,7.32
2022-09-07T02:48:46.483Z,6.85
2022-09-07T02:51:44.023Z,5.68
2022-09-07T02:54:38.985Z,5.90
2022-09-07T02:57:13.228Z,6.90
2022-09-07T02:59:48.352Z,6.13
2022-09-07T03:03:12.161Z,6.03
2022-09-07T03:05:49.021Z,6.78
2022-09-07T03:08:23.708Z,4.93
2022-09-07T03:10:51.746Z,4.35
2022-09-07T03:13:24.435Z,5.43
2022-09-07T03:15:55.527Z,4.57
2022-09-07T03:18:23.888Z,4.00
2022-09-07T03:20:51.649Z,5.10
2022-09-07T03:23:18.420Z,6.25
2022-09-07T03:25:48.517Z,4.18
2022-09-07T03:28:16.106Z,5.68
2022-09-07T03:30:49.856Z,3.25
2022-09-07T03:33:17.137Z,3.70
2022-09-07T03:35:45.417Z,3.65
2022-09-07T03:38:12.612Z,4.43
2022-09-07T03:40:39.259Z,3.75
2022-09-07T03:43:05.912Z,4.30
2022-09-07T03:45:32.548Z,3.33
2022-09-07T03:47:59.190Z,4.03
2022-09-07T03:50:25.911Z,3.58
2022-09-07T03:52:52.567Z,3.85
2022-09-07T03:55:19.213Z,4.20
2022-09-07T03:57:45.919Z,3.45
2022-09-07T04:00:14.711Z,3.83
2022-09-07T04:02:41.784Z,3.80
2022-09-07T04:05:08.924Z,3.65
2022-09-07T04:07:35.561Z,3.72
2022-09-07T04:10:02.448Z,4.55
2022-09-07T04:12:29.092Z,3.38
2022-09-07T04:14:55.810Z,3.88
2022-09-07T04:17:22.464Z,3.22
2022-09-07T04:19:49.131Z,3.95
2022-09-07T04:22:19.408Z,3.50
2022-09-07T04:24:46.058Z,3.95
2022-09-07T04:27:12.953Z,4.40
2022-09-07T04:29:39.572Z,5.03
2022-09-07T04:32:06.204Z,4.50
2022-09-07T04:34:32.863Z,4.63
2022-09-07T04:36:59.483Z,4.25
2022-09-07T04:39:26.252Z,3.30
2022-09-07T04:41:52.915Z,3.25
2022-09-07T04:44:19.589Z,3.47
2022-09-07T04:46:46.256Z,3.25
2022-09-07T04:49:13.737Z,3.92
2022-09-07T04:51:42.962Z,5.10
2022-09-07T04:54:10.398Z,3.03
2022-09-07T04:56:37.108Z,2.95
2022-09-07T04:59:04.371Z,3.30
2022-09-07T05:01:31.399Z,3.40
2022-09-07T05:04:01.186Z,4.68
2022-09-07T05:06:27.996Z,2.85
2022-09-07T05:08:55.072Z,2.58
2022-09-07T05:11:27.957Z,2.78
2022-09-07T05:14:01.017Z,1.98
2022-09-07T05:19:01.250Z,2.90
2022-09-07T05:21:30.511Z,3.15
2022-09-07T05:23:58.367Z,3.60
2022-09-07T05:26:27.259Z,5.13
2022-09-07T05:31:41.309Z,3.38
2022-09-07T05:36:56.324Z,3.67
2022-09-07T05:39:25.780Z,3.17
2022-09-07T05:41:52.597Z,2.90
2022-09-07T05:47:06.285Z,3.55
2022-09-07T05:49:32.964Z,2.97
2022-09-07T05:51:59.607Z,2.85
2022-09-07T05:54:28.842Z,3.40
2022-09-07T05:56:55.485Z,3.30
2022-09-07T05:59:22.120Z,6.43
2022-09-07T06:01:49.006Z,4.53
2022-09-07T06:04:15.880Z,2.67
2022-09-07T06:06:47.858Z,3.40
2022-09-07T06:09:30.396Z,3.58
2022-09-07T06:11:57.432Z,3.00
2022-09-07T06:14:26.961Z,5.00
2022-09-07T06:16:53.788Z,2.40
2022-09-07T06:19:20.485Z,3.13
2022-09-07T06:21:47.116Z,2.60
2022-09-07T06:24:13.845Z,4.32
2022-09-07T06:26:40.587Z,3.00
2022-09-07T06:29:07.309Z,4.20
2022-09-07T06:31:34.537Z,3.70
2022-09-07T06:34:01.266Z,4.07
2022-09-07T06:36:28.317Z,3.75
2022-09-07T06:38:56.467Z,4.55
2022-09-07T06:44:12.629Z,3.15
2022-09-07T06:49:29.027Z,3.15
2022-09-07T06:51:55.701Z,3.42
2022-09-07T06:57:09.685Z,3.08
2022-09-07T06:59:37.564Z,3.13
2022-09-07T07:02:05.849Z,3.08
2022-09-07T07:04:37.695Z,3.88
2022-09-07T07:07:10.887Z,2.53
2022-09-07T07:09:38.017Z,2.80
2022-09-07T07:12:07.799Z,5.00
2022-09-07T07:14:37.355Z,3.08
2022-09-07T07:19:33.098Z,3.83
2022-09-07T07:22:35.933Z,4.70
2022-09-07T07:24:46.353Z,7.43
2022-09-07T07:27:12.987Z,4.72
2022-09-07T07:29:39.631Z,4.15
2022-09-07T07:32:06.318Z,2.30
2022-09-07T07:34:33.202Z,2.22
2022-09-07T07:36:59.933Z,2.55
2022-09-07T07:42:13.200Z,3.28
2022-09-07T07:44:40.189Z,3.25
2022-09-07T07:47:06.945Z,3.35
2022-09-07T07:49:33.825Z,2.75
2022-09-07T07:54:48.151Z,3.50
2022-09-07T07:57:16.833Z,3.85
2022-09-07T07:59:43.532Z,3.50
2022-09-07T08:02:15.106Z,4.22
2022-09-07T08:04:41.870Z,3.70
2022-09-07T08:07:11.196Z,4.22
2022-09-07T08:09:40.341Z,4.72
2022-09-07T08:12:07.442Z,3.80
2022-09-07T08:14:36.605Z,6.40
2022-09-07T08:17:03.244Z,6.45
2022-09-07T08:19:29.901Z,4.63
2022-09-07T08:21:56.744Z,6.40
2022-09-07T08:24:23.429Z,8.40
2022-09-07T08:26:50.047Z,4.97
2022-09-07T08:29:16.975Z,5.13
2022-09-07T08:31:44.835Z,7.18
2022-09-07T08:34:11.663Z,5.30
2022-09-07T08:36:38.296Z,6.45
2022-09-07T08:39:05.016Z,7.80
2022-09-07T08:41:37.551Z,5.82
2022-09-07T08:44:12.903Z,5.40
2022-09-07T08:47:01.924Z,6.57
2022-09-07T08:49:43.788Z,5.25
2022-09-07T08:52:19.733Z,8.18
2022-09-07T08:55:00.714Z,5.90
2022-09-07T08:57:31.091Z,5.35
2022-09-07T09:00:07.088Z,6.40
2022-09-07T09:02:38.823Z,5.38
2022-09-07T09:05:41.292Z,4.80
2022-09-07T09:11:12.107Z,4.90
2022-09-07T09:14:01.571Z,4.50
2022-09-07T09:16:48.351Z,6.00
2022-09-07T09:19:28.080Z,4.07
2022-09-07T09:22:14.665Z,4.07
2022-09-07T09:24:46.842Z,4.10
2022-09-07T09:27:13.658Z,3.28
2022-09-07T09:29:41.473Z,4.07
2022-09-07T09:32:46.351Z,4.22
2022-09-07T09:35:19.065Z,4.20
2022-09-07T09:37:45.765Z,4.43
2022-09-07T09:40:30.290Z,4.82
2022-09-07T09:43:17.428Z,5.63
2022-09-07T09:48:42.072Z,4.78
2022-09-07T09:54:06.245Z,3.78
2022-09-07T12:08:05.122Z,3.70
2022-09-07T12:11:24.885Z,5.22
2022-09-07T13:44:25.044Z,4.80
2022-09-07T13:47:28.180Z,4.75
2022-09-07T13:50:22.775Z,4.15
2022-09-07T13:53:07.988Z,3.70
2022-09-07T14:03:45.681Z,4.47
2022-09-07T14:07:10.477Z,4.85
2022-09-07T14:13:23.893Z,4.78
2022-09-07T14:19:46.552Z,4.53
2022-09-07T14:25:09.621Z,4.28
2022-09-07T14:32:01.841Z,7.57
2022-09-07T14:34:36.815Z,5.95
2022-09-07T14:37:32.734Z,6.80
2022-09-07T14:47:38.263Z,4.75
2022-09-07T14:54:42.594Z,5.32
2022-09-07T14:57:16.136Z,6.38
2022-09-07T14:59:47.196Z,7.28
2022-09-07T15:07:01.016Z,5.20
2022-09-07T15:09:38.121Z,4.85
2022-09-07T15:16:33.130Z,6.40
2022-09-07T15:19:35.393Z,6.55
2022-09-07T15:22:22.981Z,4.47
2022-09-07T15:25:11.884Z,4.93
2022-09-07T15:27:58.983Z,4.80
2022-09-07T15:30:46.517Z,3.85
2022-09-07T15:33:54.302Z,3.85
2022-09-07T15:41:03.910Z,3.83
2022-09-07T15:43:32.889Z,2.97
2022-09-07T15:46:20.080Z,3.40
2022-09-07T15:49:07.113Z,3.03
2022-09-07T15:59:48.864Z,2.97
2022-09-07T16:05:56.987Z,3.65
2022-09-07T16:08:43.861Z,5.47
2022-09-07T16:11:31.304Z,2.33
2022-09-07T16:14:18.676Z,3.25
2022-09-07T16:21:18.241Z,4.53
2022-09-07T16:28:16.039Z,3.28
2022-09-07T16:31:07.642Z,3.45
2022-09-07T16:33:54.847Z,3.83
2022-09-07T16:36:41.758Z,3.25
2022-09-07T16:39:29.201Z,3.35
2022-09-07T16:49:53.791Z,6.70
2022-09-07T16:52:46.531Z,5.03
2022-09-07T16:55:13.316Z,5.82
2022-09-07T17:01:40.946Z,5.70
2022-09-07T17:04:48.389Z,5.07
2022-09-07T17:07:49.126Z,5.40
2022-09-07T17:17:57.252Z,5.32
2022-09-07T17:24:48.492Z,6.03
2022-09-07T17:27:18.139Z,3.95
2022-09-07T17:33:36.440Z,5.82
2022-09-07T17:37:32.659Z,5.18
2022-09-07T17:40:19.621Z,5.28
2022-09-07T17:46:32.574Z,3.70
2022-09-07T17:49:19.748Z,4.05
2022-09-07T17:52:06.640Z,5.38
2022-09-07T17:54:55.494Z,4.47
2022-09-07T17:57:43.427Z,6.45
2022-09-07T18:00:30.413Z,4.13
2022-09-07T18:03:17.364Z,7.15
2022-09-07T18:06:04.944Z,5.70
2022-09-07T18:12:54.135Z,6.03
2022-09-07T18:19:56.061Z,5.13
2022-09-07T18:22:26.844Z,6.78
2022-09-07T18:31:36.049Z,6.78
2022-09-07T18:34:06.784Z,5.60
2022-09-07T18:36:35.731Z,7.40
2022-09-07T18:43:04.239Z,5.70
2022-09-07T18:46:03.521Z,4.63
2022-09-07T18:59:17.237Z,5.90
2022-09-07T19:10:20.839Z,4.25
2022-09-07T19:16:38.524Z,4.43
2022-09-07T19:19:18.135Z,3.45
2022-09-07T19:25:30.584Z,3.30
2022-09-07T19:27:57.339Z,4.32
2022-09-07T19:35:20.188Z,4.05
2022-09-07T19:46:33.163Z,3.67
2022-09-07T19:49:20.176Z,5.10
2022-09-07T19:52:07.268Z,3.65
2022-09-07T20:03:28.157Z,3.60
2022-09-07T20:27:09.790Z,3.47
2022-09-07T20:30:24.364Z,4.38
2022-09-07T20:33:11.297Z,3.65
2022-09-07T20:43:51.857Z,4.65
2022-09-07T20:46:30.606Z,3.35
2022-09-07T20:49:05.346Z,2.58
2022-09-07T20:51:32.114Z,3.25
2022-09-07T21:02:29.333Z,2.95
2022-09-07T21:05:19.014Z,4.80
2022-09-07T21:07:45.604Z,3.25
2022-09-07T21:10:12.233Z,3.60
2022-09-07T21:17:05.581Z,3.90
2022-09-07T21:19:32.171Z,5.10
2022-09-07T21:21:58.816Z,4.43
2022-09-07T21:24:28.884Z,4.03
2022-09-07T21:26:55.508Z,4.10
2022-09-07T21:29:24.612Z,6.22
2022-09-07T21:31:55.057Z,3.33
2022-09-07T21:34:23.239Z,6.43
2022-09-07T21:36:50.277Z,3.80
2022-09-07T21:39:19.314Z,4.00
2022-09-07T21:41:51.308Z,4.57
2022-09-07T21:44:38.209Z,3.58
2022-09-07T21:47:27.991Z,3.42
2022-09-07T21:50:15.164Z,3.97
2022-09-07T21:57:13.129Z,2.88
2022-09-07T22:00:00.215Z,3.22
2022-09-07T22:02:35.519Z,5.10
2022-09-07T22:05:08.765Z,3.33
2022-09-07T22:07:35.429Z,4.68
2022-09-07T22:10:02.072Z,3.47
2022-09-07T22:12:46.694Z,3.13
2022-09-07T22:15:17.834Z,3.35
2022-09-07T22:18:02.089Z,4.10
2022-09-07T22:21:13.156Z,4.20
2022-09-07T22:23:45.543Z,2.85
2022-09-07T22:26:13.539Z,2.50
2022-09-07T22:28:40.825Z,3.08
2022-09-07T22:31:18.276Z,4.10
2022-09-07T22:33:46.225Z,2.38
2022-09-07T22:36:20.251Z,4.35
2022-09-07T22:38:49.949Z,3.60
2022-09-07T22:41:19.006Z,2.63
2022-09-07T22:43:47.378Z,3.58
2022-09-07T22:46:14.955Z,3.35
2022-09-07T22:48:44.267Z,3.42
2022-09-07T22:51:11.705Z,2.63
2022-09-07T22:53:42.634Z,3.47
2022-09-07T22:56:18.592Z,3.22
2022-09-07T22:58:49.981Z,2.63
2022-09-07T23:01:17.256Z,5.97
2022-09-07T23:03:44.667Z,4.15
2022-09-07T23:06:33.375Z,5.30
2022-09-07T23:09:09.560Z,3.95
2022-09-07T23:11:42.055Z,3.25
2022-09-07T23:14:15.228Z,3.20
2022-09-07T23:16:44.860Z,2.72
2022-09-07T23:19:18.460Z,4.03
2022-09-07T23:21:46.373Z,3.92
2022-09-07T23:24:36.725Z,3.53
2022-09-07T23:27:23.612Z,5.50
2022-09-07T23:30:11.675Z,3.90
2022-09-07T23:33:01.293Z,3.00
2022-09-07T23:35:59.359Z,3.00
2022-09-07T23:38:46.687Z,3.25
2022-09-07T23:41:35.651Z,2.80
2022-09-07T23:44:02.988Z,4.10
2022-09-07T23:46:32.306Z,3.05
2022-09-07T23:48:58.934Z,2.55
2022-09-07T23:55:53.164Z,2.13
2022-09-07T23:58:40.146Z,2.30
